createdAt,value
2019-04-28T00:03:51.470Z,87.95
2019-04-28T00:08:56.810Z,88.40
2019-04-28T00:14:02.436Z,88.48
2019-04-28T00:19:07.926Z,88.67
2019-04-28T00:24:23.062Z,88.94
2019-04-28T00:29:38.536Z,89.39
2019-04-28T00:34:35.947Z,89.96
2019-04-28T00:39:41.425Z,90.23
2019-04-28T00:44:46.884Z,90.09
2019-04-28T00:49:52.540Z,89.47
2019-04-28T00:54:58.094Z,89.18
2019-04-28T01:00:03.719Z,89.39
2019-04-28T01:05:11.327Z,89.66
2019-04-28T01:10:18.024Z,89.57
2019-04-28T01:15:42.511Z,89.25
2019-04-28T01:20:49.563Z,89.07
2019-04-28T01:25:55.198Z,88.67
2019-04-28T01:31:09.575Z,88.70
2019-04-28T01:36:15.163Z,88.50
2019-04-28T01:41:20.967Z,88.51
2019-04-28T01:46:26.426Z,88.60
2019-04-28T01:51:32.016Z,88.91
2019-04-28T01:56:37.496Z,89.08
2019-04-28T02:01:43.010Z,89.39
2019-04-28T02:06:49.726Z,90.09
2019-04-28T02:11:55.146Z,90.12
2019-04-28T02:17:00.689Z,89.68
2019-04-28T02:22:16.395Z,89.48
2019-04-28T02:27:22.117Z,90.00
2019-04-28T02:32:30.671Z,90.07
2019-04-28T02:37:34.721Z,90.47
2019-04-28T02:42:40.906Z,90.92
2019-04-28T02:47:47.309Z,91.79
2019-04-28T02:52:57.908Z,92.49
2019-04-28T02:58:03.511Z,92.92
2019-04-28T03:03:11.029Z,92.95
2019-04-28T03:08:16.249Z,93.32
2019-04-28T03:13:21.967Z,93.45
2019-04-28T03:18:27.544Z,93.45
2019-04-28T03:23:33.288Z,93.48
2019-04-28T03:28:47.031Z,93.55
2019-04-28T03:33:55.455Z,93.62
2019-04-28T03:39:00.774Z,93.62
2019-04-28T03:44:06.547Z,93.49
2019-04-28T03:49:13.582Z,93.30
2019-04-28T03:54:20.426Z,93.35
2019-04-28T03:59:26.106Z,93.23
2019-04-28T04:04:32.235Z,93.90
2019-04-28T04:09:46.029Z,95.01
2019-04-28T04:14:56.878Z,95.37
2019-04-28T04:20:02.305Z,94.96
2019-04-28T04:25:10.067Z,95.06
2019-04-28T04:30:15.111Z,95.86
2019-04-28T04:35:21.430Z,96.04
2019-04-28T04:40:26.947Z,96.24
2019-04-28T04:45:32.466Z,96.01
2019-04-28T04:50:37.937Z,95.57
2019-04-28T04:55:43.411Z,96.11
2019-04-28T05:00:56.509Z,95.76
2019-04-28T05:06:03.645Z,95.82
2019-04-28T05:11:09.612Z,95.29
2019-04-28T05:16:15.664Z,94.65
2019-04-28T05:21:21.545Z,94.96
2019-04-28T05:26:27.157Z,95.14
2019-04-28T05:31:32.544Z,95.47
2019-04-28T05:36:42.406Z,95.98
2019-04-28T05:41:45.231Z,95.83
2019-04-28T05:46:50.900Z,95.69
2019-04-28T05:52:00.653Z,95.97
2019-04-28T05:57:14.127Z,96.38
2019-04-28T06:02:24.009Z,96.31
2019-04-28T06:07:35.136Z,97.22
2019-04-28T06:12:40.684Z,97.56
2019-04-28T06:17:46.339Z,97.43
2019-04-28T06:22:51.797Z,97.52
2019-04-28T06:27:57.276Z,97.38
2019-04-28T06:33:07.994Z,97.55
2019-04-28T06:38:13.118Z,97.80
2019-04-28T06:43:18.578Z,97.61
2019-04-28T06:48:24.505Z,97.43
2019-04-28T06:53:29.984Z,97.40
2019-04-28T06:58:35.446Z,97.29
2019-04-28T07:03:40.837Z,97.78
2019-04-28T07:08:46.571Z,97.96
2019-04-28T07:13:52.032Z,98.31
2019-04-28T07:18:57.809Z,98.29
2019-04-28T07:24:03.464Z,98.29
2019-04-28T07:29:09.047Z,98.39
2019-04-28T07:34:14.551Z,98.58
2019-04-28T07:39:20.058Z,98.87
2019-04-28T07:44:25.536Z,99.38
2019-04-28T07:49:31.066Z,99.65
2019-04-28T07:54:36.536Z,100.00
2019-04-28T07:59:42.120Z,100.00
2019-04-28T08:04:47.721Z,100.00
2019-04-28T08:09:53.295Z,100.00
2019-04-28T08:14:59.104Z,100.00
2019-04-28T08:20:05.750Z,100.00
2019-04-28T08:25:12.625Z,100.00
2019-04-28T08:30:18.136Z,100.00
2019-04-28T08:35:23.494Z,100.00
2019-04-28T08:40:28.856Z,100.00
2019-04-28T08:45:34.683Z,100.00
2019-04-28T08:50:40.272Z,100.00
2019-04-28T08:55:46.153Z,100.00
2019-04-28T09:00:51.568Z,100.00
2019-04-28T09:05:57.140Z,100.00
2019-04-28T09:11:02.634Z,100.00
2019-04-28T09:16:08.029Z,100.00
2019-04-28T09:21:13.466Z,100.00
2019-04-28T09:26:18.874Z,100.00
2019-04-28T09:31:24.396Z,100.00
2019-04-28T09:36:30.130Z,100.00
2019-04-28T09:41:37.400Z,100.00
2019-04-28T09:46:43.438Z,100.00
2019-04-28T09:51:48.904Z,100.00
2019-04-28T09:56:56.771Z,100.00
2019-04-28T10:02:01.912Z,100.00
2019-04-28T10:07:07.543Z,100.00
2019-04-28T10:12:12.898Z,100.00
2019-04-28T10:17:18.469Z,100.00
2019-04-28T10:22:24.699Z,100.00
2019-04-28T10:27:30.052Z,100.00
2019-04-28T10:32:35.487Z,100.00
2019-04-28T10:37:42.174Z,100.00
2019-04-28T10:42:47.859Z,100.00
2019-04-28T10:47:53.621Z,100.00
2019-04-28T10:52:59.056Z,100.00
2019-04-28T10:58:04.456Z,100.00
2019-04-28T11:03:09.951Z,100.00
2019-04-28T11:08:34.509Z,100.00
2019-04-28T11:13:39.971Z,100.00
2019-04-28T11:18:45.459Z,99.60
2019-04-28T11:23:50.980Z,99.68
2019-04-28T11:28:57.053Z,99.50
2019-04-28T11:34:11.005Z,98.87
2019-04-28T11:39:20.938Z,99.28
2019-04-28T11:44:26.388Z,99.19
2019-04-28T11:49:31.912Z,98.54
2019-04-28T11:54:37.764Z,99.14
2019-04-28T11:59:43.386Z,99.21
2019-04-28T12:04:48.959Z,99.02
2019-04-28T12:10:05.893Z,96.80
2019-04-28T12:15:18.978Z,94.59
2019-04-28T12:20:25.535Z,93.01
2019-04-28T12:25:30.821Z,90.26
2019-04-28T12:30:36.508Z,87.04
2019-04-28T12:35:47.960Z,84.84
2019-04-28T12:40:49.186Z,84.92
2019-04-28T12:45:54.606Z,84.58
2019-04-28T12:51:00.000Z,86.54
2019-04-28T12:56:05.482Z,86.37
2019-04-28T13:01:19.978Z,85.88
2019-04-28T13:06:25.742Z,86.25
2019-04-28T13:11:31.141Z,84.30
2019-04-28T13:16:36.838Z,84.08
2019-04-28T13:21:58.386Z,86.09
2019-04-28T13:34:04.017Z,86.74
2019-04-28T13:39:12.848Z,87.55
2019-04-28T13:44:39.338Z,85.93
2019-04-28T13:49:50.939Z,85.28
2019-04-28T13:55:06.450Z,84.58
2019-04-28T14:00:14.112Z,84.58
2019-04-28T14:05:27.997Z,84.75
2019-04-28T14:10:33.525Z,83.10
2019-04-28T14:15:39.112Z,82.30
2019-04-28T14:20:44.609Z,82.41
2019-04-28T14:25:49.956Z,81.61
2019-04-28T14:30:55.542Z,80.62
2019-04-28T14:36:00.918Z,81.26
2019-04-28T14:41:06.393Z,78.83
2019-04-28T14:46:11.856Z,79.47
2019-04-28T14:51:17.215Z,78.89
2019-04-28T14:56:22.543Z,79.59
2019-04-28T15:01:46.701Z,79.87
2019-04-28T15:07:02.951Z,77.31
2019-04-28T15:12:08.753Z,74.97
2019-04-28T15:17:14.147Z,75.49
2019-04-28T15:22:19.505Z,77.64
2019-04-28T15:27:25.807Z,79.56
2019-04-28T15:32:31.528Z,78.60
2019-04-28T15:37:37.247Z,79.69
2019-04-28T15:42:42.554Z,79.56
2019-04-28T15:47:47.804Z,79.44
2019-04-28T15:52:53.037Z,78.71
2019-04-28T15:57:59.971Z,77.71
2019-04-28T16:03:05.414Z,76.92
2019-04-28T16:08:10.783Z,78.99
2019-04-28T16:13:16.193Z,79.52
2019-04-28T16:18:21.511Z,79.77
2019-04-28T16:23:27.003Z,79.87
2019-04-28T16:28:32.584Z,79.01
2019-04-28T16:33:38.383Z,79.25
2019-04-28T16:38:43.910Z,80.49
2019-04-28T16:43:53.070Z,83.08
2019-04-28T16:48:58.350Z,83.49
2019-04-28T16:54:03.678Z,84.44
2019-04-28T16:59:18.943Z,87.09
2019-04-28T17:04:25.838Z,87.09
2019-04-28T17:09:31.363Z,87.10
2019-04-28T17:14:36.718Z,87.46
2019-04-28T17:19:42.006Z,88.37
2019-04-28T17:24:47.514Z,89.21
2019-04-28T17:29:52.858Z,89.55
2019-04-28T17:34:58.320Z,89.88
2019-04-28T17:40:06.527Z,89.49
2019-04-28T17:45:12.179Z,90.43
2019-04-28T17:50:19.542Z,91.14
2019-04-28T17:55:24.881Z,91.55
2019-04-28T18:00:39.028Z,92.17
2019-04-28T18:05:48.838Z,92.33
2019-04-28T18:10:54.209Z,92.81
2019-04-28T18:16:08.157Z,92.96
2019-04-28T18:21:13.627Z,93.09
2019-04-28T18:26:19.165Z,93.45
2019-04-28T18:31:32.940Z,93.85
2019-04-28T18:36:44.658Z,93.99
2019-04-28T18:42:01.577Z,94.04
2019-04-28T18:47:09.693Z,94.08
2019-04-28T18:52:15.187Z,93.16
2019-04-28T18:57:21.678Z,92.55
2019-04-28T19:02:35.586Z,92.09
2019-04-28T19:07:48.959Z,91.80
2019-04-28T19:13:03.124Z,91.57
2019-04-28T19:18:13.023Z,91.49
2019-04-28T19:23:18.364Z,91.60
2019-04-28T19:28:24.393Z,91.97
2019-04-28T19:33:29.823Z,91.12
2019-04-28T19:38:35.266Z,91.98
2019-04-28T19:43:41.435Z,92.72
2019-04-28T19:48:46.942Z,92.90
2019-04-28T19:53:52.457Z,93.50
2019-04-28T19:59:04.006Z,93.94
2019-04-28T20:04:09.394Z,93.67
2019-04-28T20:09:14.776Z,93.62
2019-04-28T20:14:20.195Z,92.56
2019-04-28T20:19:25.552Z,92.28
2019-04-28T20:24:31.579Z,91.82
2019-04-28T20:29:36.898Z,92.30
2019-04-28T20:34:44.598Z,92.75
2019-04-28T20:39:53.415Z,92.43
2019-04-28T20:44:59.993Z,93.01
2019-04-28T20:50:05.758Z,93.71
2019-04-28T20:55:11.253Z,93.71
2019-04-28T21:00:17.064Z,93.50
2019-04-28T21:05:22.601Z,92.63
2019-04-28T21:10:37.548Z,92.63
2019-04-28T21:15:37.820Z,92.23
2019-04-28T21:20:43.325Z,92.80
2019-04-28T21:25:48.806Z,92.37
2019-04-28T21:30:54.227Z,92.65
2019-04-28T21:35:59.753Z,91.95
2019-04-28T21:41:05.675Z,92.01
2019-04-28T21:46:18.906Z,92.02
2019-04-28T21:51:24.413Z,91.03
2019-04-28T21:56:29.698Z,90.45
2019-04-28T22:01:35.103Z,90.49
2019-04-28T22:06:40.490Z,90.38
2019-04-28T22:11:45.992Z,90.47
2019-04-28T22:16:51.347Z,90.05
2019-04-28T22:21:56.694Z,90.17
2019-04-28T22:27:02.107Z,89.60
2019-04-28T22:32:07.437Z,89.53
2019-04-28T22:37:13.167Z,89.60
2019-04-28T22:42:18.493Z,89.58
2019-04-28T22:47:24.563Z,89.22
2019-04-28T22:52:29.820Z,88.91
2019-04-28T22:57:53.965Z,88.82
2019-04-28T23:02:59.523Z,88.85
2019-04-28T23:08:04.825Z,88.34
2019-04-28T23:13:10.053Z,88.49
2019-04-28T23:18:15.618Z,88.09
2019-04-28T23:23:21.068Z,87.58
2019-04-28T23:28:26.390Z,88.43
2019-04-28T23:33:31.662Z,88.22
2019-04-28T23:38:37.140Z,88.32
2019-04-28T23:43:42.562Z,89.13
2019-04-28T23:48:52.317Z,88.69
2019-04-28T23:54:01.712Z,88.77
2019-04-28T23:59:07.023Z,88.89
